sensor_id;sensor_type;location;lat;lon;timestamp;P1;durP1;ratioP1;P2;durP2;ratioP2
57826;SDS011;43656;57.746;11.780;2022-10-30T00:00:25;34.92;;;4.65;;
57826;SDS011;43656;57.746;11.780;2022-10-30T00:02:51;37.30;;;5.63;;
57826;SDS011;43656;57.746;11.780;2022-10-30T00:05:16;44.83;;;5.30;;
57826;SDS011;43656;57.746;11.780;2022-10-30T00:07:42;44.60;;;5.53;;
57826;SDS011;43656;57.746;11.780;2022-10-30T00:10:08;37.53;;;6.03;;
57826;SDS011;43656;57.746;11.780;2022-10-30T00:12:33;39.65;;;6.25;;
57826;SDS011;43656;57.746;11.780;2022-10-30T00:14:59;48.15;;;6.25;;
57826;SDS011;43656;57.746;11.780;2022-10-30T00:17:24;41.72;;;6.05;;
57826;SDS011;43656;57.746;11.780;2022-10-30T00:19:50;38.30;;;5.90;;
57826;SDS011;43656;57.746;11.780;2022-10-30T00:22:15;41.17;;;5.05;;
57826;SDS011;43656;57.746;11.780;2022-10-30T00:24:40;39.08;;;5.50;;
57826;SDS011;43656;57.746;11.780;2022-10-30T00:27:06;45.05;;;5.15;;
57826;SDS011;43656;57.746;11.780;2022-10-30T00:29:31;44.60;;;5.95;;
57826;SDS011;43656;57.746;11.780;2022-10-30T00:31:56;45.92;;;6.28;;
57826;SDS011;43656;57.746;11.780;2022-10-30T00:34:22;41.25;;;5.53;;
57826;SDS011;43656;57.746;11.780;2022-10-30T00:36:47;47.28;;;5.60;;
57826;SDS011;43656;57.746;11.780;2022-10-30T00:39:13;45.08;;;5.38;;
57826;SDS011;43656;57.746;11.780;2022-10-30T00:41:38;49.72;;;5.70;;
57826;SDS011;43656;57.746;11.780;2022-10-30T00:47:02;47.25;;;6.20;;
57826;SDS011;43656;57.746;11.780;2022-10-30T00:49:32;55.58;;;6.35;;
57826;SDS011;43656;57.746;11.780;2022-10-30T00:52:00;45.38;;;5.68;;
57826;SDS011;43656;57.746;11.780;2022-10-30T00:54:29;47.92;;;6.03;;
57826;SDS011;43656;57.746;11.780;2022-10-30T00:56:56;47.50;;;6.03;;
57826;SDS011;43656;57.746;11.780;2022-10-30T00:59:25;42.35;;;5.70;;
57826;SDS011;43656;57.746;11.780;2022-10-30T01:02:14;40.92;;;6.32;;
57826;SDS011;43656;57.746;11.780;2022-10-30T01:04:41;38.65;;;5.68;;
57826;SDS011;43656;57.746;11.780;2022-10-30T01:07:10;41.72;;;5.78;;
57826;SDS011;43656;57.746;11.780;2022-10-30T01:09:55;43.05;;;5.72;;
57826;SDS011;43656;57.746;11.780;2022-10-30T01:12:20;36.88;;;5.07;;
57826;SDS011;43656;57.746;11.780;2022-10-30T01:14:49;39.83;;;5.50;;
57826;SDS011;43656;57.746;11.780;2022-10-30T01:17:23;43.38;;;6.05;;
57826;SDS011;43656;57.746;11.780;2022-10-30T01:20:58;41.80;;;5.35;;
57826;SDS011;43656;57.746;11.780;2022-10-30T01:23:08;41.88;;;5.65;;
57826;SDS011;43656;57.746;11.780;2022-10-30T01:26:13;38.40;;;5.38;;
57826;SDS011;43656;57.746;11.780;2022-10-30T01:29:02;42.83;;;6.68;;
57826;SDS011;43656;57.746;11.780;2022-10-30T01:31:47;44.10;;;5.15;;
57826;SDS011;43656;57.746;11.780;2022-10-30T01:34:19;45.80;;;5.60;;
57826;SDS011;43656;57.746;11.780;2022-10-30T01:37:00;37.88;;;5.05;;
57826;SDS011;43656;57.746;11.780;2022-10-30T01:39:34;38.10;;;5.43;;
57826;SDS011;43656;57.746;11.780;2022-10-30T01:42:41;47.72;;;6.07;;
57826;SDS011;43656;57.746;11.780;2022-10-30T02:02:25;48.28;;;5.43;;
57826;SDS011;43656;57.746;11.780;2022-10-30T02:04:51;42.65;;;5.40;;
57826;SDS011;43656;57.746;11.780;2022-10-30T02:07:22;44.22;;;4.95;;
57826;SDS011;43656;57.746;11.780;2022-10-30T02:09:50;46.65;;;5.82;;
57826;SDS011;43656;57.746;11.780;2022-10-30T02:12:17;33.80;;;4.32;;
57826;SDS011;43656;57.746;11.780;2022-10-30T02:14:44;35.28;;;4.78;;
57826;SDS011;43656;57.746;11.780;2022-10-30T02:17:14;40.88;;;5.15;;
57826;SDS011;43656;57.746;11.780;2022-10-30T02:19:40;43.70;;;5.65;;
57826;SDS011;43656;57.746;11.780;2022-10-30T02:22:06;39.40;;;5.25;;
57826;SDS011;43656;57.746;11.780;2022-10-30T02:24:32;39.45;;;5.32;;
57826;SDS011;43656;57.746;11.780;2022-10-30T02:26:58;35.72;;;4.75;;
57826;SDS011;43656;57.746;11.780;2022-10-30T02:29:23;37.85;;;4.88;;
57826;SDS011;43656;57.746;11.780;2022-10-30T02:31:49;40.70;;;5.32;;
57826;SDS011;43656;57.746;11.780;2022-10-30T02:34:14;39.67;;;5.13;;
57826;SDS011;43656;57.746;11.780;2022-10-30T02:36:40;38.47;;;5.38;;
57826;SDS011;43656;57.746;11.780;2022-10-30T02:39:05;34.13;;;4.60;;
57826;SDS011;43656;57.746;11.780;2022-10-30T02:41:31;35.90;;;5.00;;
57826;SDS011;43656;57.746;11.780;2022-10-30T02:43:57;29.83;;;4.22;;
57826;SDS011;43656;57.746;11.780;2022-10-30T02:46:22;30.38;;;4.50;;
57826;SDS011;43656;57.746;11.780;2022-10-30T02:48:48;33.67;;;4.78;;
57826;SDS011;43656;57.746;11.780;2022-10-30T02:51:13;41.08;;;5.55;;
57826;SDS011;43656;57.746;11.780;2022-10-30T02:53:39;36.08;;;4.80;;
57826;SDS011;43656;57.746;11.780;2022-10-30T02:56:05;35.08;;;4.65;;
57826;SDS011;43656;57.746;11.780;2022-10-30T02:58:51;37.53;;;5.30;;
57826;SDS011;43656;57.746;11.780;2022-10-30T03:01:20;31.42;;;4.25;;
57826;SDS011;43656;57.746;11.780;2022-10-30T03:03:46;32.72;;;4.65;;
57826;SDS011;43656;57.746;11.780;2022-10-30T03:06:12;32.53;;;4.43;;
57826;SDS011;43656;57.746;11.780;2022-10-30T03:08:40;34.92;;;4.63;;
57826;SDS011;43656;57.746;11.780;2022-10-30T03:11:07;30.20;;;4.45;;
57826;SDS011;43656;57.746;11.780;2022-10-30T03:13:35;29.50;;;4.32;;
57826;SDS011;43656;57.746;11.780;2022-10-30T03:16:22;31.17;;;4.10;;
57826;SDS011;43656;57.746;11.780;2022-10-30T03:18:49;28.00;;;4.10;;
57826;SDS011;43656;57.746;11.780;2022-10-30T03:21:16;28.42;;;3.63;;
57826;SDS011;43656;57.746;11.780;2022-10-30T03:23:43;34.35;;;4.25;;
57826;SDS011;43656;57.746;11.780;2022-10-30T03:26:09;29.65;;;4.00;;
57826;SDS011;43656;57.746;11.780;2022-10-30T03:28:35;23.90;;;3.35;;
57826;SDS011;43656;57.746;11.780;2022-10-30T03:31:01;33.08;;;4.55;;
57826;SDS011;43656;57.746;11.780;2022-10-30T03:33:32;30.73;;;3.97;;
57826;SDS011;43656;57.746;11.780;2022-10-30T03:35:58;26.95;;;3.95;;
57826;SDS011;43656;57.746;11.780;2022-10-30T03:38:23;30.63;;;4.03;;
57826;SDS011;43656;57.746;11.780;2022-10-30T03:40:49;26.92;;;4.43;;
57826;SDS011;43656;57.746;11.780;2022-10-30T03:43:15;24.73;;;3.88;;
57826;SDS011;43656;57.746;11.780;2022-10-30T03:45:44;31.13;;;4.10;;
57826;SDS011;43656;57.746;11.780;2022-10-30T03:48:15;33.90;;;4.78;;
57826;SDS011;43656;57.746;11.780;2022-10-30T03:50:40;24.65;;;4.30;;
57826;SDS011;43656;57.746;11.780;2022-10-30T03:53:06;27.73;;;4.55;;
57826;SDS011;43656;57.746;11.780;2022-10-30T03:55:31;27.23;;;3.53;;
57826;SDS011;43656;57.746;11.780;2022-10-30T03:57:56;24.35;;;3.72;;
57826;SDS011;43656;57.746;11.780;2022-10-30T04:00:22;30.40;;;4.95;;
57826;SDS011;43656;57.746;11.780;2022-10-30T04:02:48;25.38;;;3.30;;
57826;SDS011;43656;57.746;11.780;2022-10-30T04:05:15;23.70;;;3.28;;
57826;SDS011;43656;57.746;11.780;2022-10-30T04:07:41;29.75;;;3.97;;
57826;SDS011;43656;57.746;11.780;2022-10-30T04:10:07;25.35;;;4.03;;
57826;SDS011;43656;57.746;11.780;2022-10-30T04:12:33;24.17;;;4.15;;
57826;SDS011;43656;57.746;11.780;2022-10-30T04:14:58;28.00;;;4.13;;
57826;SDS011;43656;57.746;11.780;2022-10-30T04:17:23;24.67;;;3.95;;
57826;SDS011;43656;57.746;11.780;2022-10-30T04:19:49;28.60;;;4.13;;
57826;SDS011;43656;57.746;11.780;2022-10-30T04:22:14;26.13;;;3.97;;
57826;SDS011;43656;57.746;11.780;2022-10-30T04:24:42;34.65;;;4.72;;
57826;SDS011;43656;57.746;11.780;2022-10-30T04:27:08;28.58;;;4.45;;
57826;SDS011;43656;57.746;11.780;2022-10-30T04:29:34;34.30;;;4.95;;
57826;SDS011;43656;57.746;11.780;2022-10-30T04:32:01;30.33;;;4.47;;
57826;SDS011;43656;57.746;11.780;2022-10-30T04:34:26;29.90;;;4.25;;
57826;SDS011;43656;57.746;11.780;2022-10-30T04:36:52;29.13;;;4.43;;
57826;SDS011;43656;57.746;11.780;2022-10-30T04:39:17;24.27;;;4.45;;
57826;SDS011;43656;57.746;11.780;2022-10-30T04:41:43;29.20;;;4.35;;
57826;SDS011;43656;57.746;11.780;2022-10-30T04:44:08;30.88;;;4.53;;
57826;SDS011;43656;57.746;11.780;2022-10-30T04:46:33;28.95;;;4.47;;
57826;SDS011;43656;57.746;11.780;2022-10-30T04:48:59;29.98;;;4.32;;
57826;SDS011;43656;57.746;11.780;2022-10-30T04:51:24;25.92;;;3.90;;
57826;SDS011;43656;57.746;11.780;2022-10-30T04:53:50;28.70;;;4.80;;
57826;SDS011;43656;57.746;11.780;2022-10-30T04:56:18;28.80;;;4.55;;
57826;SDS011;43656;57.746;11.780;2022-10-30T04:58:43;30.15;;;4.65;;
57826;SDS011;43656;57.746;11.780;2022-10-30T05:01:09;28.35;;;5.07;;
57826;SDS011;43656;57.746;11.780;2022-10-30T05:03:34;32.13;;;4.80;;
57826;SDS011;43656;57.746;11.780;2022-10-30T05:06:00;28.13;;;4.78;;
57826;SDS011;43656;57.746;11.780;2022-10-30T05:08:28;29.23;;;4.55;;
57826;SDS011;43656;57.746;11.780;2022-10-30T05:10:54;28.10;;;4.25;;
57826;SDS011;43656;57.746;11.780;2022-10-30T05:13:20;30.90;;;4.63;;
57826;SDS011;43656;57.746;11.780;2022-10-30T05:15:46;33.70;;;5.82;;
57826;SDS011;43656;57.746;11.780;2022-10-30T05:18:11;32.05;;;6.20;;
57826;SDS011;43656;57.746;11.780;2022-10-30T05:20:38;35.83;;;5.40;;
57826;SDS011;43656;57.746;11.780;2022-10-30T05:23:03;27.50;;;4.93;;
57826;SDS011;43656;57.746;11.780;2022-10-30T05:25:29;33.83;;;5.25;;
57826;SDS011;43656;57.746;11.780;2022-10-30T05:28:00;26.08;;;4.70;;
57826;SDS011;43656;57.746;11.780;2022-10-30T05:30:28;25.88;;;4.63;;
57826;SDS011;43656;57.746;11.780;2022-10-30T05:33:13;34.40;;;5.13;;
57826;SDS011;43656;57.746;11.780;2022-10-30T05:35:41;28.90;;;4.25;;
57826;SDS011;43656;57.746;11.780;2022-10-30T05:38:06;31.08;;;4.97;;
57826;SDS011;43656;57.746;11.780;2022-10-30T05:40:32;30.17;;;5.25;;
57826;SDS011;43656;57.746;11.780;2022-10-30T05:42:59;35.45;;;4.72;;
57826;SDS011;43656;57.746;11.780;2022-10-30T05:45:24;38.13;;;5.60;;
57826;SDS011;43656;57.746;11.780;2022-10-30T05:47:57;35.50;;;4.80;;
57826;SDS011;43656;57.746;11.780;2022-10-30T05:50:29;34.83;;;5.03;;
57826;SDS011;43656;57.746;11.780;2022-10-30T05:52:59;36.88;;;5.25;;
57826;SDS011;43656;57.746;11.780;2022-10-30T05:55:29;37.17;;;5.72;;
57826;SDS011;43656;57.746;11.780;2022-10-30T05:57:56;37.95;;;5.60;;
57826;SDS011;43656;57.746;11.780;2022-10-30T06:00:22;47.45;;;6.50;;
57826;SDS011;43656;57.746;11.780;2022-10-30T06:02:48;36.45;;;6.40;;
57826;SDS011;43656;57.746;11.780;2022-10-30T06:05:13;43.58;;;6.45;;
57826;SDS011;43656;57.746;11.780;2022-10-30T06:07:39;40.30;;;6.32;;
57826;SDS011;43656;57.746;11.780;2022-10-30T06:10:04;35.42;;;5.82;;
57826;SDS011;43656;57.746;11.780;2022-10-30T06:12:30;35.08;;;6.60;;
57826;SDS011;43656;57.746;11.780;2022-10-30T06:14:58;35.03;;;7.15;;
57826;SDS011;43656;57.746;11.780;2022-10-30T06:17:24;35.28;;;6.72;;
57826;SDS011;43656;57.746;11.780;2022-10-30T06:19:49;39.75;;;6.53;;
57826;SDS011;43656;57.746;11.780;2022-10-30T06:22:14;46.05;;;7.13;;
57826;SDS011;43656;57.746;11.780;2022-10-30T06:24:40;43.00;;;7.45;;
57826;SDS011;43656;57.746;11.780;2022-10-30T06:27:05;41.88;;;6.82;;
57826;SDS011;43656;57.746;11.780;2022-10-30T06:29:30;40.47;;;7.05;;
57826;SDS011;43656;57.746;11.780;2022-10-30T06:31:56;32.63;;;6.55;;
57826;SDS011;43656;57.746;11.780;2022-10-30T06:34:21;35.45;;;7.28;;
57826;SDS011;43656;57.746;11.780;2022-10-30T06:36:47;33.83;;;7.10;;
57826;SDS011;43656;57.746;11.780;2022-10-30T06:39:12;38.10;;;6.57;;
57826;SDS011;43656;57.746;11.780;2022-10-30T06:41:37;38.83;;;7.35;;
57826;SDS011;43656;57.746;11.780;2022-10-30T06:44:03;31.85;;;6.45;;
57826;SDS011;43656;57.746;11.780;2022-10-30T06:46:28;47.28;;;8.63;;
57826;SDS011;43656;57.746;11.780;2022-10-30T06:48:54;40.40;;;8.15;;
57826;SDS011;43656;57.746;11.780;2022-10-30T06:51:19;48.10;;;8.77;;
57826;SDS011;43656;57.746;11.780;2022-10-30T06:53:45;43.72;;;9.07;;
57826;SDS011;43656;57.746;11.780;2022-10-30T06:56:10;47.22;;;8.93;;
57826;SDS011;43656;57.746;11.780;2022-10-30T06:58:35;51.92;;;9.60;;
57826;SDS011;43656;57.746;11.780;2022-10-30T07:01:06;39.22;;;10.10;;
57826;SDS011;43656;57.746;11.780;2022-10-30T07:03:32;44.33;;;11.63;;
57826;SDS011;43656;57.746;11.780;2022-10-30T07:05:58;51.25;;;12.05;;
57826;SDS011;43656;57.746;11.780;2022-10-30T07:08:28;42.40;;;10.85;;
57826;SDS011;43656;57.746;11.780;2022-10-30T07:10:55;52.80;;;12.57;;
57826;SDS011;43656;57.746;11.780;2022-10-30T07:13:21;50.58;;;12.13;;
57826;SDS011;43656;57.746;11.780;2022-10-30T07:15:46;53.08;;;12.32;;
57826;SDS011;43656;57.746;11.780;2022-10-30T07:18:12;46.17;;;10.65;;
57826;SDS011;43656;57.746;11.780;2022-10-30T07:20:38;50.85;;;11.15;;
57826;SDS011;43656;57.746;11.780;2022-10-30T07:23:03;45.25;;;11.70;;
57826;SDS011;43656;57.746;11.780;2022-10-30T07:25:28;49.83;;;11.80;;
57826;SDS011;43656;57.746;11.780;2022-10-30T07:27:54;36.95;;;10.35;;
57826;SDS011;43656;57.746;11.780;2022-10-30T07:30:22;44.75;;;11.20;;
57826;SDS011;43656;57.746;11.780;2022-10-30T07:32:57;46.10;;;11.00;;
57826;SDS011;43656;57.746;11.780;2022-10-30T07:35:30;46.83;;;10.00;;
57826;SDS011;43656;57.746;11.780;2022-10-30T07:38:06;33.60;;;9.60;;
57826;SDS011;43656;57.746;11.780;2022-10-30T07:40:34;43.10;;;10.40;;
57826;SDS011;43656;57.746;11.780;2022-10-30T07:43:00;39.47;;;9.98;;
57826;SDS011;43656;57.746;11.780;2022-10-30T07:45:26;38.80;;;10.02;;
57826;SDS011;43656;57.746;11.780;2022-10-30T07:47:53;42.53;;;10.15;;
57826;SDS011;43656;57.746;11.780;2022-10-30T07:50:19;40.25;;;9.95;;
57826;SDS011;43656;57.746;11.780;2022-10-30T07:52:45;40.40;;;10.82;;
57826;SDS011;43656;57.746;11.780;2022-10-30T07:55:10;31.23;;;10.10;;
57826;SDS011;43656;57.746;11.780;2022-10-30T07:57:36;39.58;;;10.70;;
57826;SDS011;43656;57.746;11.780;2022-10-30T08:00:03;40.22;;;10.13;;
57826;SDS011;43656;57.746;11.780;2022-10-30T08:02:30;39.17;;;10.32;;
57826;SDS011;43656;57.746;11.780;2022-10-30T08:04:56;33.33;;;10.73;;
57826;SDS011;43656;57.746;11.780;2022-10-30T08:07:21;35.30;;;10.10;;
57826;SDS011;43656;57.746;11.780;2022-10-30T08:09:47;38.10;;;10.48;;
57826;SDS011;43656;57.746;11.780;2022-10-30T08:12:13;37.85;;;11.13;;
57826;SDS011;43656;57.746;11.780;2022-10-30T08:14:39;30.88;;;9.60;;
57826;SDS011;43656;57.746;11.780;2022-10-30T08:17:05;30.95;;;9.80;;
57826;SDS011;43656;57.746;11.780;2022-10-30T08:19:34;39.75;;;10.27;;
57826;SDS011;43656;57.746;11.780;2022-10-30T08:21:59;39.83;;;8.90;;
57826;SDS011;43656;57.746;11.780;2022-10-30T08:24:26;31.98;;;7.93;;
57826;SDS011;43656;57.746;11.780;2022-10-30T08:26:51;42.08;;;8.93;;
57826;SDS011;43656;57.746;11.780;2022-10-30T08:29:17;27.73;;;7.63;;
57826;SDS011;43656;57.746;11.780;2022-10-30T08:31:42;31.95;;;8.05;;
57826;SDS011;43656;57.746;11.780;2022-10-30T08:34:07;28.95;;;7.65;;
57826;SDS011;43656;57.746;11.780;2022-10-30T08:36:33;33.40;;;8.20;;
57826;SDS011;43656;57.746;11.780;2022-10-30T08:38:59;33.35;;;7.13;;
57826;SDS011;43656;57.746;11.780;2022-10-30T08:41:24;27.45;;;7.30;;
57826;SDS011;43656;57.746;11.780;2022-10-30T08:43:49;30.00;;;7.18;;
57826;SDS011;43656;57.746;11.780;2022-10-30T08:46:15;29.42;;;7.07;;
57826;SDS011;43656;57.746;11.780;2022-10-30T08:48:40;25.15;;;6.60;;
57826;SDS011;43656;57.746;11.780;2022-10-30T08:51:08;33.17;;;7.85;;
57826;SDS011;43656;57.746;11.780;2022-10-30T08:53:33;32.92;;;7.97;;
57826;SDS011;43656;57.746;11.780;2022-10-30T08:55:59;35.72;;;8.23;;
57826;SDS011;43656;57.746;11.780;2022-10-30T08:58:24;31.27;;;7.90;;
57826;SDS011;43656;57.746;11.780;2022-10-30T09:00:49;33.67;;;8.95;;
57826;SDS011;43656;57.746;11.780;2022-10-30T09:03:16;30.63;;;8.32;;
57826;SDS011;43656;57.746;11.780;2022-10-30T09:05:41;31.00;;;7.65;;
57826;SDS011;43656;57.746;11.780;2022-10-30T09:08:06;31.40;;;8.48;;
57826;SDS011;43656;57.746;11.780;2022-10-30T09:10:32;30.02;;;8.15;;
57826;SDS011;43656;57.746;11.780;2022-10-30T09:12:57;28.52;;;7.28;;
57826;SDS011;43656;57.746;11.780;2022-10-30T09:15:23;40.08;;;8.00;;
57826;SDS011;43656;57.746;11.780;2022-10-30T09:20:23;34.65;;;8.40;;
57826;SDS011;43656;57.746;11.780;2022-10-30T09:22:48;32.78;;;8.00;;
57826;SDS011;43656;57.746;11.780;2022-10-30T09:25:14;29.83;;;7.60;;
57826;SDS011;43656;57.746;11.780;2022-10-30T09:27:40;28.75;;;7.35;;
57826;SDS011;43656;57.746;11.780;2022-10-30T09:30:06;30.73;;;8.18;;
57826;SDS011;43656;57.746;11.780;2022-10-30T09:32:32;38.00;;;8.32;;
57826;SDS011;43656;57.746;11.780;2022-10-30T09:34:57;27.05;;;7.28;;
57826;SDS011;43656;57.746;11.780;2022-10-30T09:37:23;32.30;;;7.60;;
57826;SDS011;43656;57.746;11.780;2022-10-30T09:39:48;34.80;;;8.30;;
57826;SDS011;43656;57.746;11.780;2022-10-30T09:50:48;36.53;;;10.02;;
57826;SDS011;43656;57.746;11.780;2022-10-30T09:53:34;30.08;;;7.90;;
57826;SDS011;43656;57.746;11.780;2022-10-30T09:58:43;35.50;;;8.15;;
57826;SDS011;43656;57.746;11.780;2022-10-30T10:01:17;30.20;;;8.27;;
57826;SDS011;43656;57.746;11.780;2022-10-30T10:04:14;28.42;;;8.25;;
57826;SDS011;43656;57.746;11.780;2022-10-30T10:06:43;31.03;;;7.83;;
57826;SDS011;43656;57.746;11.780;2022-10-30T10:11:56;27.33;;;7.13;;
57826;SDS011;43656;57.746;11.780;2022-10-30T10:14:27;31.60;;;6.78;;
57826;SDS011;43656;57.746;11.780;2022-10-30T10:16:57;29.17;;;7.25;;
57826;SDS011;43656;57.746;11.780;2022-10-30T10:21:56;24.73;;;6.70;;
57826;SDS011;43656;57.746;11.780;2022-10-30T10:24:27;29.25;;;6.65;;
57826;SDS011;43656;57.746;11.780;2022-10-30T10:27:00;29.48;;;6.70;;
57826;SDS011;43656;57.746;11.780;2022-10-30T10:30:02;29.05;;;7.47;;
57826;SDS011;43656;57.746;11.780;2022-10-30T10:40:51;21.27;;;5.00;;
57826;SDS011;43656;57.746;11.780;2022-10-30T10:51:05;21.42;;;4.80;;
57826;SDS011;43656;57.746;11.780;2022-10-30T10:54:07;21.40;;;4.65;;
57826;SDS011;43656;57.746;11.780;2022-10-30T10:56:35;20.83;;;4.72;;
57826;SDS011;43656;57.746;11.780;2022-10-30T10:59:13;17.67;;;4.60;;
57826;SDS011;43656;57.746;11.780;2022-10-30T11:01:45;15.48;;;4.38;;
57826;SDS011;43656;57.746;11.780;2022-10-30T11:06:55;18.25;;;4.03;;
57826;SDS011;43656;57.746;11.780;2022-10-30T11:09:22;16.08;;;4.00;;
57826;SDS011;43656;57.746;11.780;2022-10-30T11:11:49;17.55;;;3.30;;
57826;SDS011;43656;57.746;11.780;2022-10-30T11:14:31;12.65;;;3.88;;
57826;SDS011;43656;57.746;11.780;2022-10-30T11:17:01;13.55;;;3.33;;
57826;SDS011;43656;57.746;11.780;2022-10-30T11:19:35;18.58;;;3.70;;
57826;SDS011;43656;57.746;11.780;2022-10-30T11:22:00;15.23;;;2.92;;
57826;SDS011;43656;57.746;11.780;2022-10-30T11:24:31;14.30;;;3.22;;
57826;SDS011;43656;57.746;11.780;2022-10-30T11:27:14;13.88;;;3.30;;
57826;SDS011;43656;57.746;11.780;2022-10-30T11:32:23;11.65;;;2.92;;
57826;SDS011;43656;57.746;11.780;2022-10-30T11:37:38;10.68;;;2.90;;
57826;SDS011;43656;57.746;11.780;2022-10-30T11:40:45;12.63;;;3.92;;
57826;SDS011;43656;57.746;11.780;2022-10-30T11:43:12;13.55;;;3.38;;
57826;SDS011;43656;57.746;11.780;2022-10-30T11:45:42;12.57;;;2.75;;
57826;SDS011;43656;57.746;11.780;2022-10-30T11:48:08;11.05;;;3.10;;
57826;SDS011;43656;57.746;11.780;2022-10-30T11:50:37;12.48;;;3.50;;
57826;SDS011;43656;57.746;11.780;2022-10-30T11:53:12;11.52;;;2.78;;
57826;SDS011;43656;57.746;11.780;2022-10-30T11:55:49;10.63;;;3.13;;
57826;SDS011;43656;57.746;11.780;2022-10-30T11:58:28;10.18;;;2.90;;
57826;SDS011;43656;57.746;11.780;2022-10-30T12:01:00;13.25;;;3.13;;
57826;SDS011;43656;57.746;11.780;2022-10-30T12:03:28;8.05;;;2.40;;
57826;SDS011;43656;57.746;11.780;2022-10-30T12:06:19;11.88;;;2.92;;
57826;SDS011;43656;57.746;11.780;2022-10-30T12:11:36;11.30;;;2.60;;
57826;SDS011;43656;57.746;11.780;2022-10-30T12:14:04;14.63;;;3.05;;
57826;SDS011;43656;57.746;11.780;2022-10-30T12:16:30;13.18;;;2.92;;
57826;SDS011;43656;57.746;11.780;2022-10-30T12:21:40;11.75;;;2.80;;
57826;SDS011;43656;57.746;11.780;2022-10-30T12:24:14;9.88;;;2.28;;
57826;SDS011;43656;57.746;11.780;2022-10-30T12:26:45;10.63;;;2.83;;
57826;SDS011;43656;57.746;11.780;2022-10-30T12:29:16;10.70;;;2.60;;
57826;SDS011;43656;57.746;11.780;2022-10-30T12:31:53;9.52;;;2.15;;
57826;SDS011;43656;57.746;11.780;2022-10-30T12:39:50;8.45;;;2.08;;
57826;SDS011;43656;57.746;11.780;2022-10-30T12:42:24;8.60;;;2.17;;
57826;SDS011;43656;57.746;11.780;2022-10-30T12:44:52;7.10;;;1.90;;
57826;SDS011;43656;57.746;11.780;2022-10-30T12:47:33;9.45;;;2.40;;
57826;SDS011;43656;57.746;11.780;2022-10-30T12:50:09;10.63;;;1.92;;
57826;SDS011;43656;57.746;11.780;2022-10-30T12:52:43;9.82;;;2.22;;
57826;SDS011;43656;57.746;11.780;2022-10-30T12:57:55;5.38;;;1.90;;
57826;SDS011;43656;57.746;11.780;2022-10-30T13:00:43;9.23;;;2.25;;
57826;SDS011;43656;57.746;11.780;2022-10-30T13:03:29;8.07;;;2.13;;
57826;SDS011;43656;57.746;11.780;2022-10-30T13:06:01;9.45;;;1.90;;
57826;SDS011;43656;57.746;11.780;2022-10-30T13:11:49;6.97;;;2.03;;
57826;SDS011;43656;57.746;11.780;2022-10-30T13:14:10;15.02;;;8.93;;
57826;SDS011;43656;57.746;11.780;2022-10-30T13:16:40;15.95;;;9.25;;
57826;SDS011;43656;57.746;11.780;2022-10-30T13:19:07;7.45;;;3.30;;
57826;SDS011;43656;57.746;11.780;2022-10-30T13:38:08;8.30;;;2.42;;
57826;SDS011;43656;57.746;11.780;2022-10-30T13:40:41;7.10;;;1.80;;
57826;SDS011;43656;57.746;11.780;2022-10-30T13:52:03;10.07;;;2.55;;
57826;SDS011;43656;57.746;11.780;2022-10-30T13:54:41;8.73;;;2.20;;
57826;SDS011;43656;57.746;11.780;2022-10-30T14:00:22;8.27;;;2.22;;
57826;SDS011;43656;57.746;11.780;2022-10-30T14:11:00;13.40;;;2.78;;
57826;SDS011;43656;57.746;11.780;2022-10-30T14:16:03;5.25;;;1.50;;
57826;SDS011;43656;57.746;11.780;2022-10-30T14:18:43;4.15;;;1.60;;
57826;SDS011;43656;57.746;11.780;2022-10-30T14:21:29;7.15;;;1.98;;
57826;SDS011;43656;57.746;11.780;2022-10-30T14:24:15;5.75;;;1.77;;
57826;SDS011;43656;57.746;11.780;2022-10-30T14:31:59;5.40;;;1.60;;
57826;SDS011;43656;57.746;11.780;2022-10-30T14:34:45;6.95;;;1.77;;
57826;SDS011;43656;57.746;11.780;2022-10-30T14:39:47;7.97;;;2.65;;
57826;SDS011;43656;57.746;11.780;2022-10-30T14:42:22;6.15;;;2.15;;
57826;SDS011;43656;57.746;11.780;2022-10-30T14:52:27;8.43;;;1.77;;
57826;SDS011;43656;57.746;11.780;2022-10-30T15:00:27;4.85;;;2.00;;
57826;SDS011;43656;57.746;11.780;2022-10-30T15:13:51;6.47;;;1.80;;
57826;SDS011;43656;57.746;11.780;2022-10-30T15:16:19;5.70;;;1.63;;
57826;SDS011;43656;57.746;11.780;2022-10-30T15:18:48;7.88;;;1.80;;
57826;SDS011;43656;57.746;11.780;2022-10-30T15:21:41;8.95;;;1.73;;
57826;SDS011;43656;57.746;11.780;2022-10-30T15:24:11;9.00;;;2.22;;
57826;SDS011;43656;57.746;11.780;2022-10-30T15:26:40;5.65;;;1.90;;
57826;SDS011;43656;57.746;11.780;2022-10-30T15:29:15;5.88;;;1.58;;
57826;SDS011;43656;57.746;11.780;2022-10-30T15:31:43;5.88;;;1.52;;
57826;SDS011;43656;57.746;11.780;2022-10-30T15:34:20;7.10;;;1.70;;
57826;SDS011;43656;57.746;11.780;2022-10-30T15:36:46;6.80;;;1.90;;
57826;SDS011;43656;57.746;11.780;2022-10-30T15:39:13;9.35;;;1.73;;
57826;SDS011;43656;57.746;11.780;2022-10-30T15:44:07;6.60;;;1.88;;
57826;SDS011;43656;57.746;11.780;2022-10-30T15:46:32;6.88;;;3.10;;
57826;SDS011;43656;57.746;11.780;2022-10-30T15:48:58;7.28;;;2.85;;
57826;SDS011;43656;57.746;11.780;2022-10-30T15:51:24;8.00;;;2.20;;
57826;SDS011;43656;57.746;11.780;2022-10-30T15:53:53;12.45;;;2.25;;
57826;SDS011;43656;57.746;11.780;2022-10-30T15:56:23;8.05;;;2.30;;
57826;SDS011;43656;57.746;11.780;2022-10-30T15:59:02;7.00;;;2.22;;
57826;SDS011;43656;57.746;11.780;2022-10-30T16:01:30;9.25;;;2.30;;
57826;SDS011;43656;57.746;11.780;2022-10-30T16:04:22;6.70;;;2.42;;
57826;SDS011;43656;57.746;11.780;2022-10-30T16:06:55;11.90;;;2.88;;
57826;SDS011;43656;57.746;11.780;2022-10-30T16:09:25;7.57;;;2.72;;
57826;SDS011;43656;57.746;11.780;2022-10-30T16:11:53;8.48;;;2.92;;
57826;SDS011;43656;57.746;11.780;2022-10-30T16:14:21;10.93;;;2.90;;
57826;SDS011;43656;57.746;11.780;2022-10-30T16:16:48;10.75;;;3.17;;
57826;SDS011;43656;57.746;11.780;2022-10-30T16:19:22;10.48;;;3.33;;
57826;SDS011;43656;57.746;11.780;2022-10-30T16:21:52;10.65;;;3.00;;
57826;SDS011;43656;57.746;11.780;2022-10-30T16:24:20;12.18;;;3.30;;
57826;SDS011;43656;57.746;11.780;2022-10-30T16:27:00;11.32;;;3.38;;
57826;SDS011;43656;57.746;11.780;2022-10-30T16:29:27;11.32;;;3.22;;
57826;SDS011;43656;57.746;11.780;2022-10-30T16:31:54;12.07;;;2.45;;
57826;SDS011;43656;57.746;11.780;2022-10-30T16:34:21;8.75;;;2.92;;
57826;SDS011;43656;57.746;11.780;2022-10-30T16:36:47;11.02;;;2.70;;
57826;SDS011;43656;57.746;11.780;2022-10-30T16:39:14;9.77;;;2.75;;
57826;SDS011;43656;57.746;11.780;2022-10-30T16:42:01;6.88;;;2.83;;
57826;SDS011;43656;57.746;11.780;2022-10-30T16:44:30;9.68;;;3.13;;
57826;SDS011;43656;57.746;11.780;2022-10-30T16:49:42;7.28;;;2.50;;
57826;SDS011;43656;57.746;11.780;2022-10-30T16:52:13;7.40;;;2.70;;
57826;SDS011;43656;57.746;11.780;2022-10-30T16:54:41;6.88;;;2.85;;
57826;SDS011;43656;57.746;11.780;2022-10-30T16:57:17;7.82;;;2.50;;
57826;SDS011;43656;57.746;11.780;2022-10-30T17:00:04;9.85;;;3.28;;
57826;SDS011;43656;57.746;11.780;2022-10-30T17:02:31;9.15;;;2.63;;
57826;SDS011;43656;57.746;11.780;2022-10-30T17:05:09;7.93;;;2.88;;
57826;SDS011;43656;57.746;11.780;2022-10-30T17:07:53;6.32;;;3.05;;
57826;SDS011;43656;57.746;11.780;2022-10-30T17:18:47;7.55;;;3.42;;
57826;SDS011;43656;57.746;11.780;2022-10-30T17:21:13;10.80;;;4.22;;